createdAt,value
2022-09-27T00:00:37.648Z,0.00
2022-09-27T00:01:37.695Z,0.00
2022-09-27T00:02:37.692Z,0.00
2022-09-27T00:03:37.694Z,0.00
2022-09-27T00:04:37.712Z,0.00
2022-09-27T00:05:37.727Z,0.00
2022-09-27T00:06:40.733Z,0.00
2022-09-27T00:07:37.761Z,0.00
2022-09-27T00:08:37.777Z,0.00
2022-09-27T00:09:37.795Z,0.00
2022-09-27T00:10:37.810Z,0.00
2022-09-27T00:11:37.827Z,0.00
2022-09-27T00:12:37.842Z,0.00
2022-09-27T00:13:37.860Z,0.00
2022-09-27T00:14:37.875Z,0.00
2022-09-27T00:15:37.926Z,0.00
2022-09-27T00:16:37.909Z,0.00
2022-09-27T00:17:37.928Z,0.00
2022-09-27T00:18:37.943Z,0.00
2022-09-27T00:19:37.958Z,0.00
2022-09-27T00:20:37.973Z,0.00
2022-09-27T00:21:37.991Z,0.00
2022-09-27T00:22:38.006Z,0.00
2022-09-27T00:23:38.022Z,0.00
2022-09-27T00:24:38.055Z,0.00
2022-09-27T00:25:38.057Z,0.00
2022-09-27T00:26:38.074Z,0.00
2022-09-27T00:27:38.090Z,0.00
2022-09-27T00:28:38.107Z,0.00
2022-09-27T00:29:38.126Z,0.00
2022-09-27T00:30:38.165Z,0.00
2022-09-27T00:31:38.220Z,0.00
2022-09-27T00:32:38.172Z,0.00
2022-09-27T00:33:38.188Z,0.00
2022-09-27T00:34:38.208Z,0.00
2022-09-27T00:35:38.221Z,0.00
2022-09-27T00:36:38.243Z,0.00
2022-09-27T00:37:38.258Z,0.00
2022-09-27T00:38:38.271Z,0.00
2022-09-27T00:39:38.298Z,0.00
2022-09-27T00:40:38.358Z,0.00
2022-09-27T00:41:38.327Z,0.00
2022-09-27T00:42:38.334Z,0.00
2022-09-27T00:43:38.352Z,0.00
2022-09-27T00:44:38.370Z,0.00
2022-09-27T00:45:38.386Z,0.00
2022-09-27T00:46:38.439Z,0.00
2022-09-27T00:47:38.420Z,0.00
2022-09-27T00:48:38.433Z,0.00
2022-09-27T00:49:38.458Z,0.00
2022-09-27T00:50:38.466Z,0.00
2022-09-27T00:51:38.484Z,0.00
2022-09-27T00:52:38.500Z,0.00
2022-09-27T00:53:38.517Z,0.00
2022-09-27T00:54:38.531Z,0.00
2022-09-27T00:55:38.550Z,0.00
2022-09-27T00:56:38.563Z,0.00
2022-09-27T00:57:38.582Z,0.00
2022-09-27T00:58:38.597Z,0.00
2022-09-27T00:59:38.613Z,0.00
2022-09-27T01:00:38.630Z,0.00
2022-09-27T01:01:38.691Z,0.00
2022-09-27T01:02:38.818Z,0.00
2022-09-27T01:03:38.676Z,0.00
2022-09-27T01:04:38.700Z,0.00
2022-09-27T01:05:38.712Z,0.00
2022-09-27T01:06:38.727Z,0.00
2022-09-27T01:07:38.745Z,0.00
2022-09-27T01:08:38.763Z,0.00
2022-09-27T01:09:38.778Z,0.00
2022-09-27T01:10:38.794Z,0.00
2022-09-27T01:11:38.809Z,0.00
2022-09-27T01:12:38.827Z,0.00
2022-09-27T01:13:38.843Z,0.00
2022-09-27T01:14:38.859Z,0.00
2022-09-27T01:15:38.925Z,0.00
2022-09-27T01:16:38.895Z,0.00
2022-09-27T01:17:38.910Z,0.00
2022-09-27T01:18:38.926Z,0.00
2022-09-27T01:19:38.942Z,0.00
2022-09-27T01:20:38.958Z,0.00
2022-09-27T01:21:38.975Z,0.00
2022-09-27T01:22:38.989Z,0.00
2022-09-27T01:23:39.008Z,0.00
2022-09-27T01:24:39.021Z,0.00
2022-09-27T01:25:39.041Z,0.00
2022-09-27T01:26:39.055Z,0.00
2022-09-27T01:27:39.070Z,0.00
2022-09-27T01:28:39.088Z,0.00
2022-09-27T01:29:39.105Z,0.00
2022-09-27T01:30:39.181Z,0.00
2022-09-27T01:31:39.175Z,0.00
2022-09-27T01:32:39.151Z,0.00
2022-09-27T01:33:39.170Z,0.00
2022-09-27T01:34:39.183Z,0.00
2022-09-27T01:35:39.205Z,0.00
2022-09-27T01:36:39.219Z,0.00
2022-09-27T01:37:39.234Z,0.00
2022-09-27T01:38:39.250Z,0.00
2022-09-27T01:39:39.266Z,0.00
2022-09-27T01:40:39.376Z,0.00
2022-09-27T01:41:39.298Z,0.00
2022-09-27T01:42:39.314Z,0.00
2022-09-27T01:43:39.332Z,0.00
2022-09-27T01:44:39.351Z,0.00
2022-09-27T01:45:39.365Z,0.00
2022-09-27T01:46:39.454Z,0.00
2022-09-27T01:47:39.402Z,0.00
2022-09-27T01:48:39.414Z,0.00
2022-09-27T01:49:39.430Z,0.00
2022-09-27T01:50:39.449Z,0.00
2022-09-27T01:51:39.463Z,0.00
2022-09-27T01:52:39.479Z,0.00
2022-09-27T01:53:39.497Z,0.00
2022-09-27T01:54:39.511Z,0.00
2022-09-27T01:55:39.528Z,0.00
2022-09-27T01:56:39.544Z,0.00
2022-09-27T01:57:39.563Z,0.00
2022-09-27T01:58:39.577Z,0.00
2022-09-27T01:59:39.593Z,0.00
2022-09-27T02:00:39.612Z,0.00
2022-09-27T02:01:39.666Z,0.00
2022-09-27T02:02:39.706Z,0.00
2022-09-27T02:03:39.670Z,0.00
2022-09-27T02:04:39.676Z,0.00
2022-09-27T02:05:39.694Z,0.00
2022-09-27T02:06:39.709Z,0.00
2022-09-27T02:07:39.725Z,0.00
2022-09-27T02:08:39.743Z,0.00
2022-09-27T02:09:39.757Z,0.00
2022-09-27T02:10:39.774Z,0.00
2022-09-27T02:11:39.790Z,0.00
2022-09-27T02:12:39.811Z,0.00
2022-09-27T02:13:39.825Z,0.00
2022-09-27T02:14:39.840Z,0.00
2022-09-27T02:15:39.898Z,0.00
2022-09-27T02:16:39.874Z,0.00
2022-09-27T02:17:39.891Z,0.00
2022-09-27T02:18:39.909Z,0.00
2022-09-27T02:19:39.924Z,0.00
2022-09-27T02:20:39.942Z,0.00
2022-09-27T02:21:39.957Z,0.00
2022-09-27T02:22:39.973Z,0.00
2022-09-27T02:23:39.992Z,0.00
2022-09-27T02:24:40.008Z,0.00
2022-09-27T02:25:40.028Z,0.00
2022-09-27T02:26:40.038Z,0.00
2022-09-27T02:27:40.060Z,0.00
2022-09-27T02:28:40.072Z,0.00
2022-09-27T02:29:40.090Z,0.00
2022-09-27T02:30:40.177Z,0.00
2022-09-27T02:31:40.124Z,0.00
2022-09-27T02:32:40.137Z,0.00
2022-09-27T02:33:40.164Z,0.00
2022-09-27T02:34:40.175Z,0.00
2022-09-27T02:35:40.188Z,0.00
2022-09-27T02:36:40.205Z,0.00
2022-09-27T02:37:40.243Z,0.00
2022-09-27T02:38:40.240Z,0.00
2022-09-27T02:39:40.260Z,0.00
2022-09-27T02:40:40.310Z,0.00
2022-09-27T02:41:40.289Z,0.00
2022-09-27T02:42:40.304Z,0.00
2022-09-27T02:43:40.343Z,0.00
2022-09-27T02:44:40.339Z,0.00
2022-09-27T02:45:40.404Z,0.00
2022-09-27T02:46:40.371Z,0.00
2022-09-27T02:47:40.388Z,0.00
2022-09-27T02:48:40.404Z,0.00
2022-09-27T02:49:40.426Z,0.00
2022-09-27T02:50:40.438Z,0.00
2022-09-27T02:51:40.461Z,0.00
2022-09-27T02:52:40.474Z,0.00
2022-09-27T02:53:40.488Z,0.00
2022-09-27T02:54:40.506Z,0.00
2022-09-27T02:55:40.519Z,0.00
2022-09-27T02:56:40.539Z,0.00
2022-09-27T02:57:40.557Z,0.00
2022-09-27T02:58:40.572Z,0.00
2022-09-27T02:59:40.587Z,0.00
2022-09-27T03:00:40.605Z,0.00
2022-09-27T03:01:40.711Z,0.00
2022-09-27T03:02:40.699Z,0.00
2022-09-27T03:03:40.655Z,0.00
2022-09-27T03:04:40.673Z,0.00
2022-09-27T03:05:40.691Z,0.00
2022-09-27T03:06:40.705Z,0.00
2022-09-27T03:07:40.722Z,0.00
2022-09-27T03:08:40.741Z,0.00
2022-09-27T03:09:40.757Z,0.00
2022-09-27T03:10:40.772Z,0.00
2022-09-27T03:11:40.789Z,0.00
2022-09-27T03:12:40.803Z,0.00
2022-09-27T03:13:55.881Z,0.00
2022-09-27T03:14:40.840Z,0.00
2022-09-27T03:15:40.854Z,0.00
2022-09-27T03:16:40.916Z,0.00
2022-09-27T03:17:40.888Z,0.00
2022-09-27T03:18:40.906Z,0.00
2022-09-27T03:19:40.921Z,0.00
2022-09-27T03:20:40.939Z,0.00
2022-09-27T03:21:40.955Z,0.00
2022-09-27T03:22:40.973Z,0.00
2022-09-27T03:23:40.987Z,0.00
2022-09-27T03:24:41.007Z,0.00
2022-09-27T03:25:41.025Z,0.00
2022-09-27T03:26:41.038Z,0.00
2022-09-27T03:27:41.054Z,0.00
2022-09-27T03:28:41.076Z,0.00
2022-09-27T03:29:41.087Z,0.00
2022-09-27T03:30:41.146Z,0.00
2022-09-27T03:31:41.121Z,0.00
2022-09-27T03:32:43.985Z,0.00
2022-09-27T03:33:41.156Z,0.00
2022-09-27T03:34:41.171Z,0.00
2022-09-27T03:35:41.187Z,0.00
2022-09-27T03:36:41.205Z,0.00
2022-09-27T03:37:41.224Z,0.00
2022-09-27T03:38:41.239Z,0.00
2022-09-27T03:39:41.254Z,0.00
2022-09-27T03:40:41.296Z,0.00
2022-09-27T03:41:41.289Z,0.00
2022-09-27T03:42:42.522Z,0.00
2022-09-27T03:43:41.320Z,0.00
2022-09-27T03:44:41.337Z,0.00
2022-09-27T03:45:41.422Z,0.00
2022-09-27T03:46:41.369Z,0.00
2022-09-27T03:47:41.385Z,0.00
2022-09-27T03:48:41.403Z,0.00
2022-09-27T03:49:41.419Z,0.00
2022-09-27T03:50:41.434Z,0.00
2022-09-27T03:51:41.455Z,0.00
2022-09-27T03:52:41.467Z,0.00
2022-09-27T03:53:41.484Z,0.00
2022-09-27T03:54:41.500Z,0.00
2022-09-27T03:55:41.518Z,0.00
2022-09-27T03:56:41.534Z,0.00
2022-09-27T03:57:41.549Z,0.00
2022-09-27T03:58:41.566Z,0.00
2022-09-27T03:59:41.581Z,0.00
2022-09-27T04:00:41.599Z,0.00
2022-09-27T04:01:41.655Z,0.00
2022-09-27T04:02:41.664Z,0.00
2022-09-27T04:03:41.648Z,0.00
2022-09-27T04:04:41.662Z,0.00
2022-09-27T04:05:41.691Z,0.00
2022-09-27T04:06:41.694Z,0.00
2022-09-27T04:07:41.712Z,0.00
2022-09-27T04:08:41.730Z,0.00
2022-09-27T04:09:44.720Z,0.00
2022-09-27T04:10:41.759Z,0.00
2022-09-27T04:11:41.776Z,0.00
2022-09-27T04:12:41.789Z,0.00
2022-09-27T04:13:41.806Z,0.00
2022-09-27T04:14:41.818Z,0.00
2022-09-27T04:15:41.838Z,0.00
2022-09-27T04:16:41.884Z,0.00
2022-09-27T04:17:41.871Z,0.00
2022-09-27T04:18:41.884Z,0.00
2022-09-27T04:19:41.901Z,0.00
2022-09-27T04:20:41.918Z,0.00
2022-09-27T04:21:41.932Z,0.00
2022-09-27T04:22:41.947Z,0.00
2022-09-27T04:23:41.962Z,0.00
2022-09-27T04:24:41.980Z,0.00
2022-09-27T04:25:41.995Z,0.00
2022-09-27T04:26:42.013Z,0.00
2022-09-27T04:27:42.031Z,0.00
2022-09-27T04:28:42.042Z,0.00
2022-09-27T04:29:42.059Z,0.00
2022-09-27T04:30:42.138Z,0.00
2022-09-27T04:31:42.112Z,0.00
2022-09-27T04:32:42.107Z,0.00
2022-09-27T04:33:42.121Z,0.00
2022-09-27T04:34:45.410Z,0.00
2022-09-27T04:35:42.165Z,0.00
2022-09-27T04:36:42.169Z,0.00
2022-09-27T04:37:42.184Z,0.00
2022-09-27T04:38:42.199Z,0.00
2022-09-27T04:39:42.219Z,0.00
2022-09-27T04:40:42.296Z,0.00
2022-09-27T04:41:42.249Z,0.00
2022-09-27T04:42:42.265Z,0.00
2022-09-27T04:43:42.279Z,0.00
2022-09-27T04:44:42.295Z,0.00
2022-09-27T04:45:42.349Z,0.00
2022-09-27T04:46:42.370Z,0.00
2022-09-27T04:47:42.342Z,0.00
2022-09-27T04:48:42.357Z,0.00
2022-09-27T04:49:42.373Z,0.00
2022-09-27T04:50:42.388Z,0.00
2022-09-27T04:51:42.405Z,0.00
2022-09-27T04:52:42.418Z,0.00
2022-09-27T04:53:42.435Z,0.00
2022-09-27T04:54:42.450Z,0.00
2022-09-27T04:55:42.468Z,0.00
2022-09-27T04:56:42.481Z,0.00
2022-09-27T04:57:42.497Z,0.00
2022-09-27T04:58:42.512Z,5.63
2022-09-27T04:59:42.530Z,5.63
2022-09-27T05:00:42.543Z,5.63
2022-09-27T05:01:42.630Z,5.63
2022-09-27T05:02:42.611Z,5.63
2022-09-27T05:03:42.589Z,5.63
2022-09-27T05:04:42.605Z,5.63
2022-09-27T05:05:42.620Z,5.63
2022-09-27T05:06:42.635Z,11.25
2022-09-27T05:07:42.652Z,16.88
2022-09-27T05:08:42.691Z,16.88
2022-09-27T05:09:42.684Z,22.50
2022-09-27T05:10:42.698Z,22.50
2022-09-27T05:11:42.712Z,22.50
2022-09-27T05:12:42.731Z,22.50
2022-09-27T05:13:42.749Z,22.50
2022-09-27T05:14:42.763Z,22.50
2022-09-27T05:15:42.775Z,16.88
2022-09-27T05:16:42.852Z,16.88
2022-09-27T05:17:42.807Z,16.88
2022-09-27T05:18:42.820Z,16.88
2022-09-27T05:19:42.837Z,22.50
2022-09-27T05:20:42.851Z,22.50
2022-09-27T05:21:42.868Z,22.50
2022-09-27T05:22:42.884Z,22.50
2022-09-27T05:23:45.915Z,16.88
2022-09-27T05:24:42.915Z,16.88
2022-09-27T05:25:42.937Z,16.88
2022-09-27T05:26:42.947Z,16.88
2022-09-27T05:27:42.959Z,16.88
2022-09-27T05:28:42.976Z,22.50
2022-09-27T05:29:42.992Z,22.50
2022-09-27T05:30:43.046Z,22.50
2022-09-27T05:31:43.029Z,28.13
2022-09-27T05:32:43.040Z,33.75
2022-09-27T05:33:43.054Z,39.38
2022-09-27T05:34:43.066Z,39.38
2022-09-27T05:35:45.508Z,45.00
2022-09-27T05:36:43.098Z,45.00
2022-09-27T05:37:43.114Z,50.63
2022-09-27T05:38:43.127Z,61.88
2022-09-27T05:39:43.146Z,73.13
2022-09-27T05:40:43.300Z,84.38
2022-09-27T05:41:43.282Z,84.38
2022-09-27T05:42:43.189Z,84.38
2022-09-27T05:43:43.206Z,78.75
2022-09-27T05:44:43.221Z,73.13
2022-09-27T05:45:43.262Z,73.13
2022-09-27T05:46:43.251Z,73.13
2022-09-27T05:47:43.267Z,78.75
2022-09-27T05:48:43.282Z,61.88
2022-09-27T05:49:43.298Z,50.63
2022-09-27T05:50:43.313Z,45.00
2022-09-27T05:51:43.335Z,50.63
2022-09-27T05:52:43.345Z,56.25
2022-09-27T05:53:43.361Z,61.88
2022-09-27T05:54:43.377Z,61.88
2022-09-27T05:55:43.390Z,67.50
2022-09-27T05:56:43.406Z,73.13
2022-09-27T05:57:43.421Z,78.75
2022-09-27T05:58:43.438Z,78.75
2022-09-27T05:59:43.453Z,84.38
2022-09-27T06:00:43.472Z,90.00
2022-09-27T06:01:43.558Z,90.00
2022-09-27T06:02:43.560Z,90.00
2022-09-27T06:03:43.514Z,95.63
2022-09-27T06:04:43.529Z,95.63
2022-09-27T06:05:45.189Z,95.63
2022-09-27T06:06:43.568Z,101.25
2022-09-27T06:07:43.574Z,101.25
2022-09-27T06:08:43.591Z,106.88
2022-09-27T06:09:43.607Z,118.13
2022-09-27T06:10:43.624Z,118.13
2022-09-27T06:11:45.120Z,118.13
2022-09-27T06:12:43.653Z,118.13
2022-09-27T06:13:43.668Z,123.75
2022-09-27T06:14:43.682Z,123.75
2022-09-27T06:15:43.701Z,123.75
2022-09-27T06:16:43.751Z,129.38
2022-09-27T06:17:43.731Z,135.00
2022-09-27T06:18:43.743Z,135.00
2022-09-27T06:19:43.762Z,135.00
2022-09-27T06:20:43.775Z,140.63
2022-09-27T06:21:43.791Z,140.63
2022-09-27T06:22:43.808Z,140.63
2022-09-27T06:23:43.823Z,146.25
2022-09-27T06:24:43.838Z,146.25
2022-09-27T06:25:43.853Z,151.88
2022-09-27T06:26:43.868Z,151.88
2022-09-27T06:27:43.885Z,151.88
2022-09-27T06:28:43.899Z,151.88
2022-09-27T06:29:43.916Z,157.50
2022-09-27T06:30:43.946Z,163.13
2022-09-27T06:31:43.962Z,168.75
2022-09-27T06:32:43.986Z,174.38
2022-09-27T06:33:43.984Z,180.00
2022-09-27T06:34:44.000Z,180.00
2022-09-27T06:35:44.015Z,180.00
2022-09-27T06:36:44.724Z,185.63
2022-09-27T06:37:44.042Z,185.63
2022-09-27T06:38:44.060Z,185.63
2022-09-27T06:39:44.078Z,180.00
2022-09-27T06:40:44.135Z,180.00
2022-09-27T06:41:44.106Z,174.38
2022-09-27T06:42:44.138Z,174.38
2022-09-27T06:43:44.136Z,180.00
2022-09-27T06:44:48.161Z,180.00
2022-09-27T06:45:44.206Z,185.63
2022-09-27T06:46:44.184Z,185.63
2022-09-27T06:47:44.200Z,185.63
2022-09-27T06:48:44.216Z,180.00
2022-09-27T06:49:44.231Z,168.75
2022-09-27T06:50:44.269Z,163.13
2022-09-27T06:51:44.262Z,163.13
2022-09-27T06:52:44.280Z,163.13
2022-09-27T06:53:44.296Z,168.75
2022-09-27T06:54:44.316Z,174.38
2022-09-27T06:55:44.327Z,180.00
2022-09-27T06:56:44.343Z,191.25
2022-09-27T06:57:44.359Z,196.88
2022-09-27T06:58:44.374Z,196.88
2022-09-27T06:59:44.392Z,191.25
2022-09-27T07:00:44.412Z,191.25
2022-09-27T07:01:44.584Z,185.63
2022-09-27T07:02:44.438Z,168.75
2022-09-27T07:03:44.458Z,185.63
2022-09-27T07:04:44.473Z,174.38
2022-09-27T07:05:44.487Z,180.00
2022-09-27T07:06:44.504Z,185.63
2022-09-27T07:07:44.518Z,174.38
2022-09-27T07:08:44.535Z,157.50
2022-09-27T07:09:44.551Z,174.38
2022-09-27T07:10:44.568Z,191.25
2022-09-27T07:11:44.584Z,180.00
2022-09-27T07:12:44.599Z,180.00
2022-09-27T07:13:44.616Z,163.13
2022-09-27T07:14:44.630Z,168.75
2022-09-27T07:15:44.645Z,163.13
2022-09-27T07:16:44.682Z,140.63
2022-09-27T07:17:44.680Z,140.63
2022-09-27T07:18:44.697Z,157.50
2022-09-27T07:19:44.714Z,191.25
2022-09-27T07:20:44.738Z,208.13
2022-09-27T07:21:44.743Z,219.38
2022-09-27T07:22:44.758Z,241.88
2022-09-27T07:23:44.779Z,230.63
2022-09-27T07:24:44.795Z,219.38
2022-09-27T07:25:44.807Z,219.38
2022-09-27T07:26:44.823Z,185.63
2022-09-27T07:27:44.840Z,151.88
2022-09-27T07:28:44.856Z,146.25
2022-09-27T07:29:44.884Z,180.00
2022-09-27T07:30:44.944Z,208.13
2022-09-27T07:31:44.904Z,241.88
2022-09-27T07:32:44.921Z,303.75
2022-09-27T07:33:44.936Z,337.50
2022-09-27T07:34:44.949Z,326.25
2022-09-27T07:35:44.968Z,309.38
2022-09-27T07:36:44.983Z,286.88
2022-09-27T07:37:45.008Z,247.50
2022-09-27T07:38:45.015Z,219.38
2022-09-27T07:39:45.031Z,208.13
2022-09-27T07:40:45.092Z,264.38
2022-09-27T07:41:45.065Z,258.75
2022-09-27T07:42:45.078Z,253.13
2022-09-27T07:43:45.100Z,258.75
2022-09-27T07:44:45.111Z,281.25
2022-09-27T07:45:45.156Z,270.00
2022-09-27T07:46:45.145Z,320.63
2022-09-27T07:47:45.160Z,320.63
2022-09-27T07:48:45.178Z,264.38
2022-09-27T07:49:45.194Z,241.88
2022-09-27T07:50:45.211Z,258.75
2022-09-27T07:51:45.225Z,315.00
2022-09-27T07:52:45.242Z,286.88
2022-09-27T07:53:45.260Z,253.13
2022-09-27T07:54:45.274Z,253.13
2022-09-27T07:55:45.291Z,264.38
2022-09-27T07:56:45.311Z,270.00
2022-09-27T07:57:45.325Z,264.38
2022-09-27T07:58:45.339Z,236.25
2022-09-27T07:59:45.358Z,241.88
2022-09-27T08:00:45.374Z,258.75
2022-09-27T08:01:45.390Z,264.38
2022-09-27T08:02:45.404Z,230.63
2022-09-27T08:03:45.422Z,225.00
2022-09-27T08:04:45.498Z,230.63
2022-09-27T08:05:45.456Z,185.63
2022-09-27T08:06:45.471Z,168.75
2022-09-27T08:07:45.488Z,185.63
2022-09-27T08:08:45.505Z,191.25
2022-09-27T08:09:45.530Z,185.63
2022-09-27T08:10:45.538Z,258.75
2022-09-27T08:11:45.557Z,225.00
2022-09-27T08:12:45.570Z,196.88
2022-09-27T08:13:45.588Z,151.88
2022-09-27T08:14:48.468Z,129.38
2022-09-27T08:15:45.622Z,146.25
2022-09-27T08:16:45.668Z,163.13
2022-09-27T08:17:45.654Z,185.63
2022-09-27T08:18:45.669Z,185.63
2022-09-27T08:19:45.700Z,168.75
2022-09-27T08:20:45.704Z,163.13
2022-09-27T08:21:45.721Z,157.50
2022-09-27T08:22:45.734Z,140.63
2022-09-27T08:23:45.753Z,146.25
2022-09-27T08:24:45.769Z,140.63
2022-09-27T08:25:45.787Z,191.25
2022-09-27T08:26:45.806Z,202.50
2022-09-27T08:27:45.819Z,230.63
2022-09-27T08:28:45.838Z,191.25
2022-09-27T08:29:45.865Z,202.50
2022-09-27T08:30:45.869Z,225.00
2022-09-27T08:31:45.921Z,247.50
2022-09-27T08:32:45.902Z,247.50
2022-09-27T08:33:45.925Z,241.88
2022-09-27T08:34:45.944Z,225.00
2022-09-27T08:35:45.953Z,219.38
2022-09-27T08:36:45.968Z,275.63
2022-09-27T08:37:45.999Z,253.13
2022-09-27T08:38:46.008Z,241.88
2022-09-27T08:39:48.074Z,247.50
2022-09-27T08:40:46.068Z,219.38
2022-09-27T08:41:46.054Z,163.13
2022-09-27T08:42:46.069Z,129.38
2022-09-27T08:43:46.086Z,140.63
2022-09-27T08:44:46.103Z,151.88
2022-09-27T08:45:46.145Z,168.75
2022-09-27T08:46:46.135Z,174.38
2022-09-27T08:47:46.155Z,196.88
2022-09-27T08:48:46.170Z,191.25
2022-09-27T08:49:46.185Z,191.25
2022-09-27T08:50:46.205Z,180.00
2022-09-27T08:51:46.219Z,174.38
2022-09-27T08:52:46.238Z,191.25
2022-09-27T08:53:46.254Z,196.88
2022-09-27T08:54:46.290Z,151.88
2022-09-27T08:55:46.287Z,123.75
2022-09-27T08:56:46.305Z,129.38
2022-09-27T08:57:46.321Z,129.38
2022-09-27T08:58:46.341Z,151.88
2022-09-27T08:59:46.356Z,180.00
2022-09-27T09:00:46.431Z,208.13
2022-09-27T09:01:46.423Z,191.25
2022-09-27T09:02:46.408Z,151.88
2022-09-27T09:03:46.424Z,157.50
2022-09-27T09:04:46.447Z,168.75
2022-09-27T09:05:46.458Z,180.00
2022-09-27T09:06:46.472Z,174.38
2022-09-27T09:07:46.490Z,180.00
2022-09-27T09:08:50.698Z,191.25
2022-09-27T09:09:46.524Z,213.75
2022-09-27T09:10:46.540Z,219.38
2022-09-27T09:11:46.562Z,230.63
2022-09-27T09:12:46.575Z,286.88
2022-09-27T09:13:46.593Z,281.25
2022-09-27T09:14:46.607Z,315.00
2022-09-27T09:15:46.625Z,275.63
2022-09-27T09:16:46.661Z,320.63
2022-09-27T09:17:46.662Z,326.25
2022-09-27T09:18:46.678Z,298.13
2022-09-27T09:19:46.694Z,309.38
2022-09-27T09:20:46.711Z,303.75
2022-09-27T09:21:46.727Z,343.13
2022-09-27T09:22:46.746Z,371.25
2022-09-27T09:23:46.763Z,360.00
2022-09-27T09:24:46.779Z,320.63
2022-09-27T09:25:46.796Z,298.13
2022-09-27T09:26:46.817Z,354.38
2022-09-27T09:27:46.832Z,416.25
2022-09-27T09:28:46.852Z,438.75
2022-09-27T09:29:46.866Z,455.63
2022-09-27T09:30:46.883Z,461.25
2022-09-27T09:31:46.924Z,461.25
2022-09-27T09:32:46.920Z,438.75
2022-09-27T09:33:46.942Z,388.13
2022-09-27T09:34:46.954Z,388.13
2022-09-27T09:35:46.975Z,393.75
2022-09-27T09:36:46.994Z,376.88
2022-09-27T09:37:47.010Z,286.88
2022-09-27T09:38:47.025Z,174.38
2022-09-27T09:39:47.044Z,151.88
2022-09-27T09:40:47.099Z,185.63
2022-09-27T09:41:47.078Z,219.38
2022-09-27T09:42:47.097Z,258.75
2022-09-27T09:43:47.114Z,326.25
2022-09-27T09:44:47.132Z,365.63
2022-09-27T09:45:47.227Z,410.63
2022-09-27T09:46:47.171Z,376.88
2022-09-27T09:47:47.188Z,393.75
2022-09-27T09:48:47.204Z,461.25
2022-09-27T09:49:47.223Z,461.25
2022-09-27T09:50:47.241Z,410.63
2022-09-27T09:51:47.259Z,326.25
2022-09-27T09:52:47.276Z,309.38
2022-09-27T09:53:47.295Z,298.13
2022-09-27T09:54:47.326Z,270.00
2022-09-27T09:55:47.330Z,365.63
2022-09-27T09:56:47.348Z,461.25
2022-09-27T09:57:47.366Z,551.25
2022-09-27T09:58:47.386Z,551.25
2022-09-27T09:59:47.404Z,523.13
2022-09-27T10:00:47.472Z,528.75
2022-09-27T10:01:47.485Z,534.38
2022-09-27T10:02:47.458Z,540.00
2022-09-27T10:03:47.474Z,624.38
2022-09-27T10:04:47.492Z,736.88
2022-09-27T10:05:47.518Z,765.00
2022-09-27T10:06:47.530Z,770.63
2022-09-27T10:07:47.547Z,810.00
2022-09-27T10:08:47.581Z,1006.88
2022-09-27T10:09:47.585Z,1063.13
2022-09-27T10:10:47.603Z,1096.88
2022-09-27T10:11:47.625Z,1147.50
2022-09-27T10:12:47.641Z,1051.88
2022-09-27T10:13:47.659Z,866.25
2022-09-27T10:14:47.677Z,742.50
2022-09-27T10:15:47.700Z,663.75
2022-09-27T10:16:47.719Z,675.00
2022-09-27T10:17:47.736Z,607.50
2022-09-27T10:18:49.974Z,613.13
2022-09-27T10:19:47.774Z,573.75
2022-09-27T10:20:47.795Z,466.88
2022-09-27T10:21:47.813Z,450.00
2022-09-27T10:22:47.835Z,450.00
2022-09-27T10:23:47.871Z,489.38
2022-09-27T10:24:47.874Z,517.50
2022-09-27T10:25:47.894Z,562.50
2022-09-27T10:26:47.914Z,551.25
2022-09-27T10:27:47.933Z,506.25
2022-09-27T10:28:47.957Z,388.13
2022-09-27T10:29:48.038Z,427.50
2022-09-27T10:30:47.990Z,528.75
2022-09-27T10:31:48.067Z,523.13
2022-09-27T10:32:48.030Z,461.25
2022-09-27T10:33:48.048Z,399.38
2022-09-27T10:34:48.071Z,320.63
2022-09-27T10:35:48.090Z,230.63
2022-09-27T10:36:48.115Z,213.75
2022-09-27T10:37:48.128Z,258.75
2022-09-27T10:38:48.145Z,315.00
2022-09-27T10:39:48.166Z,388.13
2022-09-27T10:40:48.241Z,405.00
2022-09-27T10:41:48.205Z,393.75
2022-09-27T10:42:48.226Z,438.75
2022-09-27T10:43:48.245Z,500.63
2022-09-27T10:44:48.267Z,506.25
2022-09-27T10:45:48.367Z,421.88
2022-09-27T10:46:48.302Z,388.13
2022-09-27T10:47:48.322Z,343.13
2022-09-27T10:48:48.342Z,303.75
2022-09-27T10:49:48.362Z,264.38
2022-09-27T10:50:51.423Z,247.50
2022-09-27T10:51:48.403Z,230.63
2022-09-27T10:52:48.423Z,247.50
2022-09-27T10:53:48.438Z,298.13
2022-09-27T10:54:48.458Z,348.75
2022-09-27T10:55:48.477Z,360.00
2022-09-27T10:56:48.500Z,348.75
2022-09-27T10:57:48.515Z,298.13
2022-09-27T10:58:48.533Z,275.63
2022-09-27T10:59:48.553Z,281.25
2022-09-27T11:00:48.640Z,303.75
2022-09-27T11:01:48.589Z,337.50
2022-09-27T11:02:48.609Z,399.38
2022-09-27T11:03:48.628Z,495.00
2022-09-27T11:04:48.716Z,545.63
2022-09-27T11:05:48.669Z,528.75
2022-09-27T11:06:48.710Z,517.50
2022-09-27T11:07:48.704Z,523.13
2022-09-27T11:08:48.726Z,517.50
2022-09-27T11:09:48.740Z,506.25
2022-09-27T11:10:48.759Z,483.75
2022-09-27T11:11:48.778Z,472.50
2022-09-27T11:12:48.798Z,478.13
2022-09-27T11:13:48.815Z,461.25
2022-09-27T11:14:48.834Z,438.75
2022-09-27T11:15:48.855Z,455.63
2022-09-27T11:16:48.873Z,461.25
2022-09-27T11:17:48.892Z,461.25
2022-09-27T11:18:48.907Z,478.13
2022-09-27T11:19:48.927Z,495.00
2022-09-27T11:20:48.945Z,495.00
2022-09-27T11:21:48.965Z,489.38
2022-09-27T11:22:48.982Z,466.88
2022-09-27T11:23:49.010Z,421.88
2022-09-27T11:24:49.020Z,348.75
2022-09-27T11:25:49.038Z,270.00
2022-09-27T11:26:49.057Z,213.75
2022-09-27T11:27:49.077Z,180.00
2022-09-27T11:28:49.095Z,151.88
2022-09-27T11:29:49.113Z,123.75
2022-09-27T11:30:49.129Z,106.88
2022-09-27T11:31:49.244Z,95.63
2022-09-27T11:32:49.168Z,90.00
2022-09-27T11:33:49.185Z,61.88
2022-09-27T11:34:49.203Z,39.38
2022-09-27T11:35:49.222Z,33.75
2022-09-27T11:36:53.680Z,45.00
2022-09-27T11:37:49.257Z,73.13
2022-09-27T11:38:53.174Z,95.63
2022-09-27T11:39:49.292Z,106.88
2022-09-27T11:40:49.372Z,112.50
2022-09-27T11:41:49.329Z,112.50
2022-09-27T11:42:49.347Z,101.25
2022-09-27T11:43:49.364Z,95.63
2022-09-27T11:44:49.379Z,112.50
2022-09-27T11:46:14.392Z,112.50
2022-09-27T11:46:49.445Z,118.13
2022-09-27T11:47:49.519Z,118.13
2022-09-27T11:48:49.447Z,123.75
2022-09-27T11:49:49.634Z,129.38
2022-09-27T11:50:49.481Z,123.75
2022-09-27T11:51:49.498Z,123.75
2022-09-27T11:52:49.514Z,118.13
2022-09-27T11:53:49.532Z,118.13
2022-09-27T11:54:49.547Z,123.75
2022-09-27T11:55:49.563Z,129.38
2022-09-27T11:56:49.579Z,135.00
2022-09-27T11:57:49.597Z,146.25
2022-09-27T11:58:49.614Z,151.88
2022-09-27T11:59:49.637Z,163.13
2022-09-27T12:00:49.643Z,185.63
2022-09-27T12:01:49.676Z,185.63
2022-09-27T12:02:49.730Z,196.88
2022-09-27T12:03:49.692Z,191.25
2022-09-27T12:04:49.708Z,191.25
2022-09-27T12:05:57.727Z,191.25
2022-09-27T12:06:49.739Z,208.13
2022-09-27T12:07:49.758Z,213.75
2022-09-27T12:08:49.789Z,185.63
2022-09-27T12:09:49.797Z,225.00
2022-09-27T12:10:49.815Z,230.63
2022-09-27T12:11:49.821Z,230.63
2022-09-27T12:12:49.843Z,253.13
2022-09-27T12:13:49.862Z,270.00
2022-09-27T12:14:49.867Z,320.63
2022-09-27T12:15:49.901Z,331.88
2022-09-27T12:16:49.900Z,337.50
2022-09-27T12:17:49.914Z,354.38
2022-09-27T12:18:51.685Z,354.38
2022-09-27T12:19:49.946Z,365.63
2022-09-27T12:20:49.962Z,545.63
2022-09-27T12:21:49.978Z,573.75
2022-09-27T12:22:58.489Z,635.63
2022-09-27T12:23:50.010Z,708.75
2022-09-27T12:24:50.027Z,888.75
2022-09-27T12:25:50.044Z,978.75
2022-09-27T12:26:50.059Z,973.13
2022-09-27T12:27:50.076Z,945.00
2022-09-27T12:28:50.092Z,905.63
2022-09-27T12:29:50.111Z,956.25
2022-09-27T12:30:52.842Z,956.25
2022-09-27T12:31:50.157Z,933.75
2022-09-27T12:32:50.163Z,945.00
2022-09-27T12:33:50.178Z,939.38
2022-09-27T12:34:50.194Z,849.38
2022-09-27T12:35:50.215Z,759.38
2022-09-27T12:36:50.228Z,669.38
2022-09-27T12:37:50.246Z,579.38
2022-09-27T12:38:50.265Z,528.75
2022-09-27T12:39:50.283Z,489.38
2022-09-27T12:40:50.300Z,489.38
2022-09-27T12:41:50.321Z,495.00
2022-09-27T12:42:50.338Z,495.00
2022-09-27T12:43:50.364Z,523.13
2022-09-27T12:44:51.658Z,523.13
2022-09-27T12:45:50.394Z,540.00
2022-09-27T12:46:50.478Z,556.88
2022-09-27T12:47:50.427Z,601.88
2022-09-27T12:48:50.443Z,646.88
2022-09-27T12:49:50.468Z,663.75